Time;durP1;ratioP1;P1;durP2;ratioP2;P2;SDS_P1;SDS_P2;PMS_P1;PMS_P2;Temp;Humidity;BMP_temperature;BMP_pressure;BME280_temperature;BME280_humidity;BME280_pressure;Samples;Min_cycle;Max_cycle;Signal;HPM_P1;HPM_P2
2024/01/17 00:00:16;;;;;;;61.38;23.40;;;;;;;-2.28;100.00;97437.16;5072037;28;20020;-80
2024/01/17 00:03:03;;;;;;;65.18;25.67;;;;;;;-2.48;100.00;97405.13;5064799;28;20036;-82
2024/01/17 00:05:31;;;;;;;49.78;22.52;;;;;;;-2.50;100.00;97399.06;5088253;28;20043;-81
2024/01/17 00:07:57;;;;;;;48.17;22.52;;;;;;;-2.49;100.00;97403.41;5071269;28;20367;-79
2024/01/17 00:10:50;;;;;;;62.38;23.15;;;;;;;-2.62;100.00;97378.28;5070157;28;20031;-79
2024/01/17 00:13:25;;;;;;;48.65;22.67;;;;;;;-2.50;100.00;97399.94;5109192;28;20107;-80
2024/01/17 00:16:08;;;;;;;57.10;24.65;;;;;;;-2.47;100.00;97406.88;5089769;28;20115;-80
2024/01/17 00:30:42;;;;;;;57.30;24.23;;;;;;;-2.98;100.00;97348.19;4805034;29;20088;-81
2024/01/17 00:33:30;;;;;;;56.72;24.25;;;;;;;-2.83;100.00;97380.28;4777682;29;20048;-81
2024/01/17 00:39:30;;;;;;;54.95;23.60;;;;;;;-2.65;100.00;97409.72;4770074;30;20504;-81
2024/01/17 00:48:49;;;;;;;46.75;21.33;;;;;;;-2.60;100.00;97418.38;4843907;29;20104;-81
2024/01/17 00:51:22;;;;;;;47.67;20.33;;;;;;;-2.64;100.00;97421.91;4903657;29;20106;-79
2024/01/17 00:54:27;;;;;;;50.72;21.65;;;;;;;-2.93;100.00;97365.59;4936083;28;20074;-81
2024/01/17 00:56:59;;;;;;;58.03;24.15;;;;;;;-2.67;100.00;97417.59;5046528;28;20077;-81
2024/01/17 01:02:34;;;;;;;50.63;22.30;;;;;;;-2.70;100.00;97414.13;5015344;28;20327;-81
2024/01/17 01:04:59;;;;;;;54.17;24.45;;;;;;;-2.84;100.00;97385.53;5034794;28;20127;-81
2024/01/17 01:07:25;;;;;;;68.40;25.48;;;;;;;-2.60;100.00;97421.00;5058215;28;20455;-80
2024/01/17 01:10:01;;;;;;;58.10;24.80;;;;;;;-2.61;100.00;97422.75;5064179;28;20032;-80
2024/01/17 01:12:27;;;;;;;67.40;25.00;;;;;;;-2.77;100.00;97385.44;5089596;28;20031;-81
2024/01/17 01:14:53;;;;;;;65.57;24.48;;;;;;;-2.64;100.00;97393.13;5072440;28;20024;-81
2024/01/17 01:17:18;;;;;;;68.60;26.10;;;;;;;-2.75;100.00;97383.69;5062418;28;20071;-80
2024/01/17 01:19:44;;;;;;;54.35;25.40;;;;;;;-2.61;100.00;97406.16;5064232;28;20024;-79
2024/01/17 01:22:10;;;;;;;65.55;29.92;;;;;;;-2.60;100.00;97397.44;5077909;28;20028;-80
2024/01/17 01:24:38;;;;;;;68.80;26.77;;;;;;;-2.64;100.00;97388.75;5088304;28;20110;-81
2024/01/17 01:27:04;;;;;;;69.47;28.65;;;;;;;-2.65;100.00;97387.03;5070604;28;20484;-80
2024/01/17 01:29:29;;;;;;;61.17;24.77;;;;;;;-2.61;100.00;97396.56;5069131;28;20032;-79
2024/01/17 01:31:55;;;;;;;59.53;23.30;;;;;;;-2.76;100.00;97381.94;5066221;28;20116;-80
2024/01/17 01:34:21;;;;;;;75.07;27.00;;;;;;;-2.72;100.00;97381.91;5066155;28;20514;-79
2024/01/17 01:36:46;;;;;;;62.58;23.90;;;;;;;-2.75;100.00;97388.03;5067773;28;20028;-80
2024/01/17 01:39:14;;;;;;;56.92;23.95;;;;;;;-2.84;100.00;97389.03;5096597;28;20036;-79
2024/01/17 01:41:40;;;;;;;64.30;26.63;;;;;;;-2.83;100.00;97389.91;5072714;28;20032;-79
2024/01/17 01:44:06;;;;;;;66.20;26.48;;;;;;;-2.90;100.00;97388.22;5084973;28;20510;-80
2024/01/17 01:47:07;;;;;;;68.63;25.38;;;;;;;-2.90;100.00;97383.88;5062935;28;20027;-82
2024/01/17 01:49:58;;;;;;;62.25;24.70;;;;;;;-2.89;100.00;97379.50;5092910;28;20036;-78
2024/01/17 01:52:24;;;;;;;58.08;23.75;;;;;;;-2.91;100.00;97387.34;5106271;28;20028;-79
2024/01/17 01:54:51;;;;;;;61.28;23.75;;;;;;;-2.86;100.00;97393.38;5079823;28;20022;-79
2024/01/17 01:57:16;;;;;;;62.83;24.95;;;;;;;-2.82;100.00;97399.44;5079958;28;20020;-79
2024/01/17 01:59:42;;;;;;;58.83;25.20;;;;;;;-2.76;100.00;97402.00;5065492;28;20035;-79
2024/01/17 02:02:08;;;;;;;59.13;25.42;;;;;;;-2.78;100.00;97415.13;5073053;28;20534;-79
2024/01/17 02:04:34;;;;;;;60.88;23.00;;;;;;;-2.81;100.00;97414.28;5068957;28;20067;-78
2024/01/17 02:07:01;;;;;;;46.30;21.08;;;;;;;-2.85;100.00;97405.59;5077394;28;20032;-80
2024/01/17 02:09:30;;;;;;;50.45;21.95;;;;;;;-2.88;100.00;97407.38;5068974;28;20028;-79
2024/01/17 02:11:57;;;;;;;45.08;20.27;;;;;;;-2.82;100.00;97415.16;5075008;28;20035;-79
2024/01/17 02:14:24;;;;;;;41.05;18.50;;;;;;;-2.89;100.00;97406.50;5091561;28;20027;-78
2024/01/17 02:16:53;;;;;;;44.58;18.42;;;;;;;-2.84;100.00;97402.09;5066021;28;20085;-79
2024/01/17 02:19:21;;;;;;;43.17;18.13;;;;;;;-2.88;100.00;97389.94;5086023;28;20038;-80
2024/01/17 02:21:47;;;;;;;50.47;20.67;;;;;;;-2.92;100.00;97380.38;5074359;28;20475;-79
2024/01/17 02:24:28;;;;;;;44.60;18.95;;;;;;;-2.84;100.00;97382.91;5082960;28;20170;-78
2024/01/17 02:26:54;;;;;;;46.22;19.25;;;;;;;-2.74;100.00;97390.63;5068213;28;20024;-80
2024/01/17 02:29:20;;;;;;;44.55;18.23;;;;;;;-2.75;100.00;97377.56;5070896;28;20554;-80
2024/01/17 02:31:46;;;;;;;39.25;17.75;;;;;;;-2.69;100.00;97374.00;5062800;28;20107;-81
2024/01/17 02:34:15;;;;;;;42.28;17.45;;;;;;;-2.62;100.00;97367.81;5082359;28;20030;-82
2024/01/17 02:36:43;;;;;;;37.15;17.90;;;;;;;-2.65;100.00;97365.22;5061115;28;20051;-80
2024/01/17 02:39:10;;;;;;;39.15;17.67;;;;;;;-2.63;100.00;97360.84;5063066;28;20030;-79
2024/01/17 02:41:36;;;;;;;38.47;17.95;;;;;;;-2.62;100.00;97358.22;5071457;28;20035;-80
2024/01/17 02:44:01;;;;;;;40.55;18.88;;;;;;;-2.65;100.00;97358.25;5082504;28;20392;-81
2024/01/17 02:46:28;;;;;;;45.42;19.30;;;;;;;-2.70;100.00;97353.94;5060092;28;20051;-80
2024/01/17 02:48:53;;;;;;;46.17;19.63;;;;;;;-2.86;100.00;97332.38;5064775;28;20038;-80
2024/01/17 02:51:19;;;;;;;53.15;21.23;;;;;;;-2.73;100.00;97354.84;5063962;28;20028;-80
2024/01/17 02:53:51;;;;;;;50.40;22.20;;;;;;;-2.97;100.00;97337.72;5062129;28;20089;-81
2024/01/17 02:56:16;;;;;;;59.80;22.98;;;;;;;-2.85;100.00;97355.88;5069672;28;20047;-80
2024/01/17 02:58:42;;;;;;;58.85;22.20;;;;;;;-2.96;100.00;97357.78;5073721;28;20439;-79
2024/01/17 03:01:08;;;;;;;63.72;29.80;;;;;;;-2.92;100.00;97362.06;5073926;28;20054;-80
2024/01/17 03:03:33;;;;;;;68.40;30.20;;;;;;;-2.87;100.00;97351.56;5070375;28;20115;-79
2024/01/17 03:05:59;;;;;;;58.65;25.17;;;;;;;-2.96;100.00;97325.53;5074279;28;20053;-79
2024/01/17 03:08:27;;;;;;;56.35;23.10;;;;;;;-2.68;100.00;97355.69;5076631;28;20027;-80
2024/01/17 03:10:55;;;;;;;56.47;24.75;;;;;;;-2.60;100.00;97358.19;5082097;28;20047;-79
2024/01/17 03:13:21;;;;;;;61.70;25.00;;;;;;;-2.56;100.00;97357.25;5064598;28;20093;-81
2024/01/17 03:15:47;;;;;;;73.30;27.58;;;;;;;-2.46;100.00;97358.88;5061537;28;20463;-74
2024/01/17 03:18:16;;;;;;;65.60;25.38;;;;;;;-2.31;100.00;97369.13;5101645;28;20047;-76
2024/01/17 03:20:42;;;;;;;69.32;26.98;;;;;;;-2.20;100.00;97356.72;5076127;28;20034;-77
2024/01/17 03:23:08;;;;;;;67.70;27.48;;;;;;;-2.18;100.00;97365.41;5075800;28;20031;-76
2024/01/17 03:25:33;;;;;;;62.35;27.08;;;;;;;-2.18;100.00;97357.56;5071535;28;20380;-78
2024/01/17 03:27:59;;;;;;;55.63;25.98;;;;;;;-2.02;100.00;97364.28;5088688;28;20080;-77
2024/01/17 03:30:25;;;;;;;62.00;25.83;;;;;;;-1.95;100.00;97351.97;5076108;28;20156;-77
2024/01/17 03:32:52;;;;;;;61.42;25.85;;;;;;;-1.95;100.00;97342.34;5075800;28;20029;-76
2024/01/17 03:35:18;;;;;;;61.95;26.05;;;;;;;-1.95;100.00;97342.34;5075795;28;20023;-77
2024/01/17 03:37:44;;;;;;;61.97;25.20;;;;;;;-1.80;100.00;97341.22;5071850;28;20035;-78
2024/01/17 03:40:10;;;;;;;75.18;30.73;;;;;;;-1.86;100.00;97339.59;5075859;28;20122;-79
2024/01/17 03:42:36;;;;;;;75.22;31.17;;;;;;;-1.83;100.00;97342.16;5075422;28;20432;-77
2024/01/17 03:45:01;;;;;;;68.30;27.90;;;;;;;-1.89;100.00;97323.91;5077397;28;20070;-77
2024/01/17 03:47:27;;;;;;;64.78;27.83;;;;;;;-1.87;100.00;97347.44;5079459;28;20023;-77
2024/01/17 03:49:52;;;;;;;58.60;24.60;;;;;;;-1.93;100.00;97331.81;5075191;28;20134;-78
2024/01/17 03:52:19;;;;;;;57.22;25.42;;;;;;;-2.00;100.00;97348.56;5079311;28;20031;-75
2024/01/17 03:54:45;;;;;;;63.05;26.55;;;;;;;-2.01;100.00;97320.63;5079517;28;20128;-77
2024/01/17 03:57:14;;;;;;;69.50;27.00;;;;;;;-1.98;100.00;97338.91;5079319;28;20110;-77
2024/01/17 03:59:49;;;;;;;64.93;25.52;;;;;;;-2.09;100.00;97328.59;5088488;28;20162;-77
2024/01/17 04:02:15;;;;;;;69.63;26.95;;;;;;;-2.08;100.00;97339.94;5095947;28;20543;-76
2024/01/17 04:04:45;;;;;;;79.57;30.23;;;;;;;-2.13;100.00;97350.50;5079492;28;20039;-76
2024/01/17 04:07:11;;;;;;;81.60;30.42;;;;;;;-2.45;100.00;97301.22;5079585;28;20032;-77
2024/01/17 04:09:41;;;;;;;70.85;28.95;;;;;;;-2.28;100.00;97348.13;5095871;28;20095;-81
2024/01/17 04:12:06;;;;;;;65.68;26.30;;;;;;;-2.41;100.00;97341.34;5095924;28;20023;-78
2024/01/17 04:14:57;;;;;;;64.95;26.35;;;;;;;-2.35;100.00;97356.94;5096511;28;20152;-79
2024/01/17 04:17:31;;;;;;;79.45;27.85;;;;;;;-2.61;100.00;97325.03;5097686;28;20057;-79
2024/01/17 04:20:44;;;;;;;72.25;28.35;;;;;;;-2.68;100.00;97316.44;5078369;28;20519;-82
2024/01/17 04:23:18;;;;;;;65.50;25.13;;;;;;;-2.54;100.00;97334.53;4995160;28;20364;-79
2024/01/17 04:25:49;;;;;;;58.33;23.80;;;;;;;-2.43;100.00;97353.59;4979060;28;20038;-78
2024/01/17 04:28:17;;;;;;;54.43;24.13;;;;;;;-2.41;100.00;97346.56;5041987;28;20074;-75
2024/01/17 04:30:44;;;;;;;51.55;23.58;;;;;;;-2.49;100.00;97338.81;5065872;28;20047;-78
2024/01/17 04:33:09;;;;;;;71.55;25.88;;;;;;;-2.45;100.00;97337.00;5087984;28;20506;-77
2024/01/17 04:35:35;;;;;;;53.22;22.38;;;;;;;-2.42;100.00;97324.75;5064238;28;20050;-74
2024/01/17 04:38:01;;;;;;;46.38;20.55;;;;;;;-2.52;100.00;97328.38;5084173;28;20036;-77
2024/01/17 04:40:26;;;;;;;50.58;21.63;;;;;;;-2.75;100.00;97320.88;5107087;28;20079;-75
2024/01/17 04:42:52;;;;;;;56.50;23.02;;;;;;;-2.84;100.00;97341.06;5113531;28;20145;-74
2024/01/17 04:45:21;;;;;;;63.65;25.20;;;;;;;-2.83;100.00;97359.34;5112954;28;20475;-79
2024/01/17 04:48:13;;;;;;;63.30;25.17;;;;;;;-2.82;100.00;97348.00;5095228;28;20051;-75
2024/01/17 04:50:39;;;;;;;63.88;23.98;;;;;;;-2.83;100.00;97348.88;5088665;28;20457;-76
2024/01/17 04:53:05;;;;;;;55.88;25.42;;;;;;;-2.69;100.00;97366.16;5076067;28;20114;-74
2024/01/17 04:55:30;;;;;;;64.60;26.83;;;;;;;-2.70;100.00;97351.31;5090157;28;20035;-75
2024/01/17 04:57:56;;;;;;;78.53;31.05;;;;;;;-2.62;100.00;97373.03;5069388;28;20116;-75
2024/01/17 05:00:21;;;;;;;82.60;34.75;;;;;;;-2.71;100.00;97362.69;5057854;28;20151;-77
2024/01/17 05:02:47;;;;;;;69.28;29.23;;;;;;;-2.64;100.00;97359.09;5068725;28;20476;-76
2024/01/17 05:05:15;;;;;;;69.40;29.83;;;;;;;-2.63;100.00;97372.19;5077845;28;20057;-75
2024/01/17 05:07:41;;;;;;;70.35;29.50;;;;;;;-2.67;100.00;97359.13;5077986;28;20019;-76
2024/01/17 05:10:07;;;;;;;69.68;28.55;;;;;;;-2.68;100.00;97350.44;5094014;28;20027;-76
2024/01/17 05:12:33;;;;;;;67.35;27.70;;;;;;;-2.71;100.00;97341.75;5081126;28;20082;-76
2024/01/17 05:15:37;;;;;;;59.30;26.33;;;;;;;-2.68;100.00;97354.81;5069683;28;20483;-77
2024/01/17 05:18:07;;;;;;;70.25;27.38;;;;;;;-2.84;100.00;97336.69;5088998;28;20444;-75
2024/01/17 05:20:33;;;;;;;65.22;25.55;;;;;;;-2.79;100.00;97347.94;5071314;28;20074;-75
2024/01/17 05:22:59;;;;;;;67.13;28.13;;;;;;;-2.78;100.00;97347.09;5080561;28;20452;-75
2024/01/17 05:25:39;;;;;;;55.95;25.10;;;;;;;-2.76;100.00;97345.28;5093345;28;20392;-76
2024/01/17 05:28:06;;;;;;;62.92;23.88;;;;;;;-2.80;100.00;97335.75;5083108;28;20466;-77
2024/01/17 05:30:32;;;;;;;86.15;30.95;;;;;;;-2.79;100.00;97342.72;5080256;28;20520;-76
2024/01/17 05:32:58;;;;;;;82.70;32.08;;;;;;;-2.84;100.00;97336.69;5101399;28;20122;-75
2024/01/17 05:35:23;;;;;;;87.40;35.17;;;;;;;-2.73;100.00;97318.22;5089578;28;20040;-77
2024/01/17 05:37:49;;;;;;;77.57;30.75;;;;;;;-2.74;100.00;97334.81;5073179;28;20039;-76
2024/01/17 05:40:17;;;;;;;57.13;23.00;;;;;;;-2.84;100.00;97321.00;5071825;28;20023;-76
2024/01/17 05:42:45;;;;;;;48.47;19.50;;;;;;;-2.88;100.00;97310.56;5092448;28;20042;-76
2024/01/17 05:45:14;;;;;;;127.88;50.30;;;;;;;-2.85;100.00;97302.69;5066140;28;20145;-75
2024/01/17 05:47:40;;;;;;;43.70;20.60;;;;;;;-2.82;100.00;97306.13;5086147;28;20066;-75
2024/01/17 05:50:12;;;;;;;50.88;20.05;;;;;;;-2.82;100.00;97306.13;5083752;28;20036;-76
2024/01/17 05:52:41;;;;;;;47.92;22.52;;;;;;;-2.90;100.00;97312.34;5083809;28;20518;-76
2024/01/17 05:55:11;;;;;;;71.97;31.05;;;;;;;-2.84;100.00;97331.47;5086780;28;20031;-77
2024/01/17 05:57:40;;;;;;;72.30;29.65;;;;;;;-2.78;100.00;97318.31;5073390;28;20580;-75
2024/01/17 06:00:08;;;;;;;68.18;28.70;;;;;;;-2.63;100.00;97303.25;5077157;28;20032;-75
2024/01/17 06:02:34;;;;;;;75.95;32.83;;;;;;;-2.45;100.00;97302.97;5086528;28;20173;-75
2024/01/17 06:05:02;;;;;;;63.15;26.60;;;;;;;-2.45;100.00;97300.38;5068978;28;20028;-76
2024/01/17 06:10:13;;;;;;;62.40;25.13;;;;;;;-2.26;100.00;97335.88;5079966;28;20468;-76
2024/01/17 06:12:42;;;;;;;71.68;29.58;;;;;;;-2.01;100.00;97331.09;5086448;28;20027;-76
2024/01/17 06:15:09;;;;;;;69.35;30.48;;;;;;;-1.90;100.00;97331.78;5064968;28;20549;-75
2024/01/17 06:50:07;;;;;;;46.80;21.65;;;;;;;-0.72;100.00;97333.03;4974689;28;20514;-75
2024/01/17 06:52:51;;;;;;;52.97;22.65;;;;;;;-0.54;100.00;97289.72;5043723;28;20111;-77
2024/01/17 06:56:01;;;;;;;54.45;24.52;;;;;;;0.87;100.00;97310.69;5073181;28;20020;-78
2024/01/17 06:58:47;;;;;;;51.85;21.75;;;;;;;1.88;100.00;97224.16;5043284;28;20407;-78
2024/01/17 07:01:18;;;;;;;38.40;17.63;;;;;;;1.53;100.00;97206.88;5090832;28;20071;-77
2024/01/17 07:03:46;;;;;;;36.25;15.75;;;;;;;1.57;100.00;97230.41;5073394;28;20471;-77
2024/01/17 07:06:12;;;;;;;36.13;15.48;;;;;;;1.52;100.00;97258.69;5073013;28;20055;-76
2024/01/17 07:08:44;;;;;;;39.28;17.83;;;;;;;1.42;100.00;97253.75;5072861;28;20055;-76
2024/01/17 07:11:37;;;;;;;48.45;23.83;;;;;;;1.45;100.00;97251.03;5057312;28;20073;-78
2024/01/17 07:14:03;;;;;;;74.10;31.83;;;;;;;1.53;100.00;97270.97;5058307;28;20027;-75
2024/01/17 07:16:29;;;;;;;67.68;27.83;;;;;;;1.68;100.00;97284.56;5063924;28;20032;-78
2024/01/17 07:18:58;;;;;;;65.60;27.60;;;;;;;1.85;100.00;97292.81;5037861;28;20107;-77
2024/01/17 07:21:53;;;;;;;76.47;30.20;;;;;;;2.16;100.00;97298.81;5040452;28;20028;-78
2024/01/17 07:24:18;;;;;;;83.35;32.35;;;;;;;3.65;100.00;97287.25;5064187;28;20044;-75
2024/01/17 07:26:50;;;;;;;61.15;26.77;;;;;;;5.13;100.00;97266.00;5058883;28;20096;-77
2024/01/17 07:29:15;;;;;;;52.10;21.38;;;;;;;6.34;100.00;97239.81;5060225;28;20522;-75
2024/01/17 07:31:41;;;;;;;48.70;23.52;;;;;;;6.61;100.00;97232.28;5069816;28;20101;-77
2024/01/17 07:34:07;;;;;;;64.22;30.85;;;;;;;7.70;100.00;97210.38;5071646;28;20027;-76
2024/01/17 07:36:32;;;;;;;57.10;29.70;;;;;;;7.88;96.93;97197.81;5096280;28;20058;-76
2024/01/17 07:38:58;;;;;;;50.53;25.75;;;;;;;8.97;86.64;97196.69;5067898;28;20040;-76
2024/01/17 07:41:23;;;;;;;50.08;24.58;;;;;;;9.38;80.83;97208.34;5087799;28;20021;-76
2024/01/17 07:43:49;;;;;;;42.88;21.75;;;;;;;10.58;73.07;97208.53;5078062;28;20127;-75
2024/01/17 07:46:14;;;;;;;41.67;22.58;;;;;;;11.30;63.94;97176.66;5096565;28;20384;-75
2024/01/17 07:48:40;;;;;;;41.20;23.25;;;;;;;11.12;63.19;97202.06;5067307;28;20032;-75
2024/01/17 07:51:06;;;;;;;56.85;31.17;;;;;;;11.49;62.13;97188.75;5073141;28;20023;-78
2024/01/17 07:53:32;;;;;;;64.07;27.33;;;;;;;11.64;59.40;97176.94;5093155;28;20045;-77
2024/01/17 07:55:59;;;;;;;55.78;29.05;;;;;;;11.35;61.33;97184.38;5090561;28;20110;-75
2024/01/17 07:58:24;;;;;;;46.50;27.65;;;;;;;10.47;63.44;97195.00;5093053;28;20016;-76
2024/01/17 08:00:50;;;;;;;68.82;37.45;;;;;;;9.50;69.06;97196.03;5095034;28;20095;-77
2024/01/17 08:03:15;;;;;;;58.33;30.45;;;;;;;8.47;79.75;97216.59;5092938;28;20032;-76
2024/01/17 08:05:41;;;;;;;37.58;19.88;;;;;;;8.17;84.31;97213.88;5108979;28;20029;-76
2024/01/17 08:08:07;;;;;;;6.63;3.15;;;;;;;8.05;77.98;97206.59;5073457;28;20024;-76
2024/01/17 08:10:32;;;;;;;4.28;2.83;;;;;;;8.29;72.85;97209.66;5071436;28;20453;-76
2024/01/17 08:12:58;;;;;;;4.50;2.70;;;;;;;8.40;73.04;97204.56;5075842;28;20106;-77
2024/01/17 08:15:24;;;;;;;5.10;2.83;;;;;;;8.40;71.39;97193.91;5076563;28;20053;-76
2024/01/17 08:17:50;;;;;;;4.93;2.60;;;;;;;8.40;71.80;97195.72;5082924;28;20027;-77
2024/01/17 08:20:16;;;;;;;4.38;2.60;;;;;;;8.37;69.92;97196.75;5075265;28;20339;-77
2024/01/17 08:22:43;;;;;;;9.75;6.20;;;;;;;8.18;81.80;97191.59;5086959;28;20047;-76
2024/01/17 08:25:09;;;;;;;8.70;4.80;;;;;;;8.07;82.29;97195.84;5058689;28;20505;-76
2024/01/17 08:27:36;;;;;;;10.45;5.43;;;;;;;8.21;88.64;97203.91;5083877;28;20034;-77
2024/01/17 08:30:04;;;;;;;18.48;8.05;;;;;;;8.29;91.81;97215.00;5082745;28;20494;-76
2024/01/17 08:32:30;;;;;;;14.85;7.13;;;;;;;8.46;92.76;97225.50;5073196;28;20028;-77
2024/01/17 08:34:55;;;;;;;13.60;6.03;;;;;;;8.42;94.11;97220.47;5085013;28;20039;-77
2024/01/17 08:37:21;;;;;;;27.60;12.32;;;;;;;8.16;98.27;97236.13;5086182;28;20502;-77
2024/01/17 08:39:47;;;;;;;61.65;23.27;;;;;;;8.47;98.65;97234.38;5092271;28;20024;-76
2024/01/17 08:42:13;;;;;;;53.60;23.50;;;;;;;8.41;99.54;97245.41;5082644;28;20051;-77
2024/01/17 08:44:45;;;;;;;36.45;17.67;;;;;;;8.38;100.00;97258.91;5063921;28;20525;-74
2024/01/17 08:47:11;;;;;;;58.78;25.30;;;;;;;8.53;100.00;97242.00;5105966;28;20123;-77
2024/01/17 08:49:40;;;;;;;54.72;25.50;;;;;;;8.59;100.00;97233.66;5113202;28;20051;-77
2024/01/17 08:52:06;;;;;;;37.30;17.70;;;;;;;8.40;97.33;97230.38;5094252;28;20049;-75
2024/01/17 08:54:32;;;;;;;10.60;6.03;;;;;;;8.30;83.64;97216.72;5113656;28;20042;-76
2024/01/17 08:56:57;;;;;;;20.20;9.75;;;;;;;8.58;81.81;97207.97;5095071;28;20490;-76
2024/01/17 08:59:23;;;;;;;7.75;3.50;;;;;;;8.79;72.39;97196.00;5113531;28;20032;-77
2024/01/17 09:01:52;;;;;;;14.70;6.85;;;;;;;9.00;77.77;97221.38;5074752;28;20024;-76
2024/01/17 09:04:19;;;;;;;18.52;9.98;;;;;;;8.91;88.45;97234.41;5078456;28;20023;-78
2024/01/17 09:06:44;;;;;;;19.98;9.40;;;;;;;8.97;89.44;97240.22;5086604;28;20076;-76
2024/01/17 09:09:12;;;;;;;10.73;5.47;;;;;;;9.21;72.11;97221.84;5112734;28;20102;-76
2024/01/17 09:11:38;;;;;;;8.88;4.50;;;;;;;9.25;68.62;97218.94;5092417;28;20030;-76
2024/01/17 09:14:04;;;;;;;7.22;4.00;;;;;;;9.34;66.21;97221.97;5089087;28;20023;-77
2024/01/17 09:16:30;;;;;;;7.65;4.60;;;;;;;9.36;64.29;97225.38;5094788;28;20105;-76
2024/01/17 09:18:56;;;;;;;4.68;3.15;;;;;;;9.44;63.16;97212.44;5113060;28;20028;-76
2024/01/17 09:21:22;;;;;;;6.72;3.20;;;;;;;9.55;62.97;97205.47;5073074;28;20062;-76
2024/01/17 09:23:48;;;;;;;9.50;3.50;;;;;;;9.59;62.14;97200.78;5074606;28;20024;-77
2024/01/17 09:26:13;;;;;;;9.15;4.05;;;;;;;9.57;62.18;97197.34;5094954;28;20027;-76
2024/01/17 09:28:39;;;;;;;16.05;7.35;;;;;;;9.58;63.59;97193.72;5094478;28;20475;-77
2024/01/17 09:31:04;;;;;;;10.60;4.57;;;;;;;9.63;63.30;97197.81;5077588;28;20070;-76
2024/01/17 09:33:30;;;;;;;10.18;4.72;;;;;;;9.82;61.81;97186.81;5091605;28;20418;-77
2024/01/17 09:35:56;;;;;;;6.68;3.42;;;;;;;9.83;60.71;97177.84;5077013;28;20115;-76
2024/01/17 09:38:22;;;;;;;10.05;4.93;;;;;;;9.76;60.76;97180.03;5094253;28;20115;-75
2024/01/17 09:40:49;;;;;;;12.05;5.78;;;;;;;9.85;59.97;97189.28;5112597;28;20016;-77
2024/01/17 09:43:19;;;;;;;12.77;5.32;;;;;;;9.93;60.40;97176.28;5093667;28;20498;-76
2024/01/17 09:45:45;;;;;;;7.90;4.55;;;;;;;10.09;61.30;97174.31;5076632;28;20036;-75
2024/01/17 09:48:12;;;;;;;5.88;3.72;;;;;;;10.32;60.13;97181.72;5093888;28;20031;-76
2024/01/17 09:50:38;;;;;;;7.90;3.95;;;;;;;10.31;59.79;97171.09;5077058;28;20137;-76
2024/01/17 09:53:11;;;;;;;6.40;3.70;;;;;;;10.35;59.89;97175.28;5093991;28;20437;-75
2024/01/17 09:55:38;;;;;;;12.43;4.90;;;;;;;10.38;59.59;97159.03;5077542;28;20418;-76
2024/01/17 09:58:05;;;;;;;7.97;4.30;;;;;;;10.29;60.84;97157.00;5088468;28;20035;-77
2024/01/17 10:00:31;;;;;;;5.68;2.67;;;;;;;10.29;60.24;97171.22;5093898;28;20038;-76
2024/01/17 10:02:57;;;;;;;5.18;2.88;;;;;;;10.22;59.72;97164.56;5075718;28;20092;-76
2024/01/17 10:05:25;;;;;;;6.45;2.75;;;;;;;10.23;58.90;97154.72;5093891;28;20406;-76
2024/01/17 10:07:52;;;;;;;4.38;2.28;;;;;;;9.96;58.02;97146.72;5111852;28;20423;-76
2024/01/17 10:10:21;;;;;;;2.67;1.42;;;;;;;9.82;58.34;97136.06;5094014;28;20034;-76
2024/01/17 10:12:47;;;;;;;3.15;2.25;;;;;;;10.00;58.16;97134.84;5088704;28;20455;-76
2024/01/17 10:15:14;;;;;;;3.33;1.85;;;;;;;10.02;58.21;97124.06;5093496;28;20500;-76
2024/01/17 10:17:39;;;;;;;4.20;2.50;;;;;;;9.95;58.61;97122.75;5111781;28;20027;-77
2024/01/17 10:20:06;;;;;;;9.48;3.90;;;;;;;9.93;58.81;97117.53;5093502;28;20028;-77
2024/01/17 10:22:33;;;;;;;4.75;3.30;;;;;;;9.81;59.16;97121.00;5093756;28;20028;-76
2024/01/17 10:25:00;;;;;;;4.00;2.25;;;;;;;9.91;59.56;97106.06;5093579;28;20019;-76
2024/01/17 10:27:27;;;;;;;4.47;2.90;;;;;;;10.00;61.42;97110.78;5077786;28;20553;-75
2024/01/17 10:29:53;;;;;;;4.07;2.42;;;;;;;9.94;59.02;97099.66;5075885;28;20116;-75
2024/01/17 10:32:18;;;;;;;7.53;3.25;;;;;;;9.83;59.93;97097.72;5093615;28;20479;-77
2024/01/17 10:34:44;;;;;;;6.53;3.28;;;;;;;9.81;61.03;97095.13;5090741;28;20049;-76
2024/01/17 10:37:13;;;;;;;5.72;2.55;;;;;;;9.94;60.73;97089.81;5090017;28;20028;-76
2024/01/17 10:39:40;;;;;;;6.22;2.17;;;;;;;10.06;59.82;97093.53;5084730;28;20036;-74
2024/01/17 10:42:18;;;;;;;8.25;3.53;;;;;;;10.70;59.03;97096.22;5064967;28;20039;-76
2024/01/17 10:44:43;;;;;;;3.85;2.45;;;;;;;10.98;57.60;97102.28;5076341;28;20036;-75
2024/01/17 10:47:09;;;;;;;8.23;3.10;;;;;;;10.99;56.93;97085.25;5079110;28;20035;-76
2024/01/17 10:49:34;;;;;;;6.07;3.13;;;;;;;11.25;56.18;97077.09;5094327;28;20028;-77
2024/01/17 10:52:11;;;;;;;6.50;2.95;;;;;;;11.45;55.64;97051.53;5108151;28;20031;-78
2024/01/17 10:54:46;;;;;;;5.65;2.85;;;;;;;11.33;55.78;97065.81;5078772;28;20028;-77
2024/01/17 10:57:14;;;;;;;5.80;3.00;;;;;;;11.56;55.67;97066.81;5107517;28;20042;-76
2024/01/17 10:59:47;;;;;;;4.55;2.85;;;;;;;11.96;54.30;97057.56;5072503;28;20499;-77
2024/01/17 11:02:22;;;;;;;4.22;3.10;;;;;;;11.96;53.92;97038.81;5084558;28;20051;-76
2024/01/17 11:05:10;;;;;;;5.90;3.03;;;;;;;11.94;54.09;97038.91;5076015;28;20039;-76
2024/01/17 11:07:36;;;;;;;6.40;2.92;;;;;;;11.82;53.61;97047.00;5081260;28;20057;-77
2024/01/17 11:10:03;;;;;;;6.78;3.35;;;;;;;11.84;53.70;97029.00;5091733;28;20102;-77
2024/01/17 11:12:32;;;;;;;6.93;2.92;;;;;;;11.82;53.51;97039.81;5090916;28;20039;-77
2024/01/17 11:14:59;;;;;;;4.93;2.90;;;;;;;11.88;53.37;97044.72;5059006;28;20019;-76
2024/01/17 11:17:28;;;;;;;5.13;3.25;;;;;;;11.91;53.82;97027.56;5067350;28;20419;-77
2024/01/17 11:19:54;;;;;;;6.35;3.80;;;;;;;11.94;53.98;97016.59;5093071;28;20024;-77
2024/01/17 11:22:21;;;;;;;10.02;5.65;;;;;;;12.52;53.27;97018.31;5076096;28;20539;-76
2024/01/17 11:24:53;;;;;;;6.03;3.50;;;;;;;12.78;52.60;97014.47;5069110;28;20026;-76
2024/01/17 11:27:25;;;;;;;9.27;4.25;;;;;;;12.61;53.30;97025.69;5081500;28;20031;-76
2024/01/17 11:30:00;;;;;;;8.90;4.55;;;;;;;12.72;53.47;97032.88;5082752;28;20044;-79
2024/01/17 11:32:43;;;;;;;5.78;3.45;;;;;;;12.72;53.71;97020.31;5099025;28;20042;-76
2024/01/17 11:35:09;;;;;;;4.82;2.88;;;;;;;12.47;54.13;97036.63;5089245;28;20445;-76
2024/01/17 11:37:38;;;;;;;9.15;4.22;;;;;;;12.32;54.99;97011.84;5084135;28;20035;-77
2024/01/17 11:40:05;;;;;;;9.55;4.70;;;;;;;12.28;54.71;97012.19;5076171;28;20027;-77
2024/01/17 11:42:33;;;;;;;8.57;4.60;;;;;;;12.13;55.42;97005.31;5088760;28;20047;-75
2024/01/17 11:44:59;;;;;;;7.07;3.92;;;;;;;12.11;55.71;97002.78;5086309;28;20028;-76
2024/01/17 11:47:25;;;;;;;8.73;3.90;;;;;;;12.04;56.33;97012.25;5067079;28;20034;-75
2024/01/17 11:49:54;;;;;;;8.77;3.63;;;;;;;12.12;56.62;97009.81;5096128;28;20047;-75
2024/01/17 11:52:33;;;;;;;4.95;3.08;;;;;;;11.99;56.67;97019.81;5064884;28;20035;-76
2024/01/17 11:55:02;;;;;;;4.97;2.38;;;;;;;11.97;57.56;97010.19;5084231;28;20027;-75
2024/01/17 11:57:32;;;;;;;5.72;3.72;;;;;;;11.94;57.74;97000.50;5078450;28;20511;-76
2024/01/17 12:00:09;;;;;;;6.63;3.85;;;;;;;12.03;57.19;97007.84;5090875;28;20525;-76
2024/01/17 12:02:40;;;;;;;7.57;3.70;;;;;;;12.05;57.24;96999.72;5083707;28;20053;-76
2024/01/17 12:05:07;;;;;;;8.80;4.65;;;;;;;12.14;57.47;97005.22;5070477;28;20150;-76
2024/01/17 12:07:42;;;;;;;7.05;3.08;;;;;;;12.17;56.87;96994.25;5087354;28;20115;-76
2024/01/17 12:10:10;;;;;;;7.57;4.38;;;;;;;12.17;57.16;96999.63;5087472;28;20064;-76
2024/01/17 12:12:42;;;;;;;4.88;3.17;;;;;;;12.29;56.99;96996.00;5081350;28;20540;-77
2024/01/17 12:15:12;;;;;;;9.73;4.35;;;;;;;12.28;57.68;96996.09;5082027;28;20047;-76
2024/01/17 12:17:38;;;;;;;7.82;3.55;;;;;;;12.21;57.68;96985.00;5087113;28;20028;-75
2024/01/17 12:20:08;;;;;;;10.45;4.80;;;;;;;12.18;58.39;96993.28;5070054;28;20046;-77
2024/01/17 12:22:34;;;;;;;7.22;3.78;;;;;;;12.14;57.53;96981.09;5087512;28;20061;-75
2024/01/17 12:25:00;;;;;;;10.93;4.70;;;;;;;12.12;58.10;96991.06;5086140;28;20016;-76
2024/01/17 12:27:31;;;;;;;6.18;3.30;;;;;;;12.16;58.40;97000.59;5087397;28;20124;-77